Hub


Voltar

 INFORMAÇÕES METEOROLÓGICAS

METAR FOR LPMA


ADDS - METARS form results

(1256 UTC 26 April 2019)
Data provider http://aviationweather.gov/metar/data/
 
METAR text: LPMA 261230Z 04017KT 9999 SCT016 BKN030 18/11 Q1026
Conditions at: LPMA (FUNCHAL/MADEIRA , PT) observed 1230 UTC 26 April 2019
Temperature: 18.0°C (64°F)
Dewpoint: 11.0°C (52°F) [RH = 64%]
Pressure (altimeter): 30.30 inches Hg (1026.0 mb)
Winds: from the NE (40 degrees) at 20 MPH (17 knots; 8.7 m/s)
Visibility: 6 or more miles (10+ km)
Ceiling: 3000 feet AGL
Clouds: scattered clouds at 1600 feet AGL
broken clouds at 3000 feet AGL
Weather: no significant weather observed at this time

METAR text: LPMA 261200Z 04017KT 9999 SCT016 BKN030 18/11 Q1027
Conditions at: LPMA (FUNCHAL/MADEIRA , PT) observed 1200 UTC 26 April 2019
Temperature: 18.0°C (64°F)
Dewpoint: 11.0°C (52°F) [RH = 64%]
Pressure (altimeter): 30.32 inches Hg (1027.0 mb)
Winds: from the NE (40 degrees) at 20 MPH (17 knots; 8.7 m/s)
Visibility: 6 or more miles (10+ km)
Ceiling: 3000 feet AGL
Clouds: scattered clouds at 1600 feet AGL
broken clouds at 3000 feet AGL
Weather: no significant weather observed at this time

Forecast for: LPMA (FUNCHAL/MADEIRA , PT)
Text: TAF LPMA 261100Z 2612/2712 02015KT 9999 SCT015
Forecast period: 1200 UTC 26 April 2019 to 1200 UTC 27 April 2019
Forecast type: FROM: standard forecast or significant change
Winds: from the NNE (20 degrees) at 17 MPH (15 knots; 7.7 m/s)
Visibility: 6 or more miles 10+ km)
Ceiling: at least 12,000 feet AGL
Clouds: scattered clouds at 1500 feet AGL
Weather: no significant weather forecast for this period
Text: TEMPO 2612/2712 FEW015 BKN030
Forecast period: 1200 UTC 26 April 2019 to 1200 UTC 27 April 2019
Forecast type: TEMPORARY: The following changes expected for less than half the time period
Visibility: missing
Ceiling: 3000 feet AGL
Clouds: few clouds at 1500 feet AGL
broken clouds at 3000 feet AGL
Weather: no significant weather forecast for this period
Text: PROB30
Forecast period: 1200 UTC 26 April 2019 to 1200 UTC 27 April 2019
Forecast type: TEMPORARY: The following changes expected for less than half the time period
Winds: from the NNE (30 degrees) at 21 MPH (18 knots; 9.3 m/s)
gusting to 34 MPH (30 knots; 15.4 m/s)
Visibility: missing
Ceiling: unknown
Clouds: missing
Weather: no significant weather forecast for this period


 MAPA DO AEROPORTO


 INFORMAÇÕES DA PISTA

Pista 05 Tamanho da pista 9110 ft Largura da pista 148 ft
Elevação da pista 147 ft Ranhura da pista 480 ft Proa da pista 45
Pista 23 Tamanho da pista 9110 ft Largura da pista 148 ft
Elevação da pista 192 ft Ranhura da pista 490 ft Proa da pista 225

 FREQUÊNCIAS DO AEROPORTO

Tipo APP Nome APP Frequência 119.2 MHZ
Tipo TWR Nome TWR Frequência 118.35 MHZ

 AUXÍLIOS DE NAVEGAÇÃO PRÓXIMOS AO AEROPORTO

Tipo VOR-DME Nome Madeira Frequência 112200 KHZ
Tipo NDB Nome Madeira Frequência 318 KHZ